Portada
METAR-TAF:

METAR-TAF

Aeropuertos :

Monte Terminillo, Italia

latitud: 42-28N, longitud: 012-59E, altitud: 1874 m

Observación

El informe se hizo hace 2 horas y 10 minutos, a las 09:55 UTC
Viento 27 kt del este
Temperatura -1°C
Humedad 64%
Presión 1015 hPa

METAR: LIRK 040955Z AUTO 09027KT //// M01/M07 Q1015

Hora: 14:05 (12:05 UTC)


TAF: falta

Observaciones y pronósticos meteorológicos de más de 4000 aeropuertos (mensajes METAR y TAF).

Los puntos amarillos y rojos representan las estaciones disponibles.

Ponga el ratón en el punto deseado para ver el nombre de la estación.

Haga clic para ver las observaciones y los pronósticos meteorológicos.

Para cambiar el mapa : haga clic en los botones verdes con una cruz de color negro para hacer un zoom, en el botón verde con un guión para alejar o en las flechas verdes para mapas adyacentes.


METAR-TAF: